Time;durP1;ratioP1;P1;durP2;ratioP2;P2;SDS_P1;SDS_P2;PMS_P1;PMS_P2;Temp;Humidity;BMP_temperature;BMP_pressure;BME280_temperature;BME280_humidity;BME280_pressure;Samples;Min_cycle;Max_cycle;Signal;HPM_P1;HPM_P2
2019/05/03 00:00:39;;;;;;;2.35;2.15;;;;;;;9.53;83.01172;94491.79;;;;
2019/05/03 00:08:35;;;;;;;2.35;2.15;;;;;;;9.53;83.01172;94491.79;;;;
2019/05/03 00:09:36;;;;;;;2.35;2.15;;;;;;;9.53;83.01172;94491.79;;;;
2019/05/03 00:10:38;;;;;;;2.55;1.9;;;;;;;9.24;81.96484;94484.9;;;;
2019/05/03 00:11:39;;;;;;;2.55;1.9;;;;;;;9.24;81.96484;94484.9;;;;
2019/05/03 00:12:40;;;;;;;2.55;1.9;;;;;;;9.24;81.96484;94484.9;;;;
2019/05/03 00:13:41;;;;;;;2.55;1.9;;;;;;;9.24;81.96484;94484.9;;;;
2019/05/03 00:14:45;;;;;;;2.55;1.9;;;;;;;9.24;81.96484;94484.9;;;;
2019/05/03 00:16:08;;;;;;;2.55;1.9;;;;;;;9.24;81.96484;94484.9;;;;
2019/05/03 00:17:10;;;;;;;2.55;1.9;;;;;;;9.24;81.96484;94484.9;;;;
2019/05/03 00:18:11;;;;;;;2.55;1.9;;;;;;;9.24;81.96484;94484.9;;;;
2019/05/03 00:19:12;;;;;;;2.55;1.9;;;;;;;9.24;81.96484;94484.9;;;;
2019/05/03 00:20:13;;;;;;;2.55;1.9;;;;;;;9.24;81.96484;94484.9;;;;
2019/05/03 00:21:14;;;;;;;2.55;1.9;;;;;;;9.24;81.96484;94484.9;;;;
2019/05/03 00:22:15;;;;;;;2.55;1.9;;;;;;;9.24;81.96484;94484.9;;;;
2019/05/03 00:23:17;;;;;;;2.55;1.9;;;;;;;9.24;81.96484;94484.9;;;;
2019/05/03 00:24:18;;;;;;;2;1.8;;;;;;;9.05;81.79297;94469.94;;;;
2019/05/03 00:25:19;;;;;;;2;1.8;;;;;;;9.05;81.79297;94469.94;;;;
2019/05/03 00:26:20;;;;;;;2.1;1.85;;;;;;;9.07;82.62598;94472.8;;;;
2019/05/03 00:27:21;;;;;;;2.1;1.85;;;;;;;9.07;82.62598;94472.8;;;;
2019/05/03 00:28:22;;;;;;;2.1;1.85;;;;;;;9.07;82.62598;94472.8;;;;
2019/05/03 00:29:23;;;;;;;2.1;1.85;;;;;;;9.07;82.62598;94472.8;;;;
2019/05/03 00:30:24;;;;;;;2.1;1.85;;;;;;;9.07;82.62598;94472.8;;;;
2019/05/03 00:31:25;;;;;;;2.1;1.85;;;;;;;9.07;82.62598;94472.8;;;;
2019/05/03 00:32:27;;;;;;;2.1;1.85;;;;;;;9.07;82.62598;94472.8;;;;
2019/05/03 00:33:28;;;;;;;2.1;1.85;;;;;;;9.07;82.62598;94472.8;;;;
2019/05/03 00:34:35;;;;;;;2.1;1.85;;;;;;;9.07;82.62598;94472.8;;;;
2019/05/03 00:35:56;;;;;;;2.1;1.85;;;;;;;9.07;82.62598;94472.8;;;;
2019/05/03 00:37:00;;;;;;;1.9;1.7;;;;;;;8.96;82.03027;94459.85;;;;
2019/05/03 00:38:03;;;;;;;1.9;1.7;;;;;;;8.96;82.03027;94459.85;;;;
2019/05/03 00:39:45;;;;;;;1.9;1.7;;;;;;;8.96;82.03027;94459.85;;;;
2019/05/03 00:40:48;;;;;;;2.1;1.9;;;;;;;8.98;82.83105;94460.8;;;;
2019/05/03 00:41:49;;;;;;;2.1;1.9;;;;;;;8.98;82.83105;94460.8;;;;
2019/05/03 00:42:50;;;;;;;2.1;1.9;;;;;;;8.98;82.83105;94460.8;;;;
2019/05/03 00:43:51;;;;;;;2.1;1.9;;;;;;;8.98;82.83105;94460.8;;;;
2019/05/03 00:44:52;;;;;;;2.1;1.9;;;;;;;8.98;82.83105;94460.8;;;;
2019/05/03 00:45:54;;;;;;;2.1;1.9;;;;;;;8.98;82.83105;94460.8;;;;
2019/05/03 00:46:55;;;;;;;2.1;1.9;;;;;;;8.98;82.83105;94460.8;;;;
2019/05/03 00:47:56;;;;;;;2.1;1.9;;;;;;;8.98;82.83105;94460.8;;;;
2019/05/03 00:48:57;;;;;;;2.1;1.9;;;;;;;8.98;82.83105;94460.8;;;;
2019/05/03 00:49:58;;;;;;;2.4;2;;;;;;;8.88;82.37598;94466.05;;;;
2019/05/03 00:50:59;;;;;;;2.4;2;;;;;;;8.88;82.37598;94466.05;;;;
2019/05/03 00:52:00;;;;;;;2.4;2;;;;;;;8.88;82.37598;94466.05;;;;
2019/05/03 00:53:01;;;;;;;3.35;2.2;;;;;;;8.92;83.05273;94462.74;;;;
2019/05/03 00:54:02;;;;;;;3.35;2.2;;;;;;;8.92;83.05273;94462.74;;;;
2019/05/03 00:55:03;;;;;;;3.35;2.2;;;;;;;8.92;83.05273;94462.74;;;;
2019/05/03 00:56:05;;;;;;;3.35;2.2;;;;;;;8.92;83.05273;94462.74;;;;
2019/05/03 00:57:06;;;;;;;3.35;2.2;;;;;;;8.92;83.05273;94462.74;;;;
2019/05/03 00:58:07;;;;;;;3.35;2.2;;;;;;;8.92;83.05273;94462.74;;;;
2019/05/03 00:59:08;;;;;;;3.35;2.2;;;;;;;8.92;83.05273;94462.74;;;;
2019/05/03 01:00:09;;;;;;;3.35;2.2;;;;;;;8.92;83.05273;94462.74;;;;
2019/05/03 01:01:10;;;;;;;3.35;2.2;;;;;;;8.92;83.05273;94462.74;;;;
2019/05/03 01:02:11;;;;;;;3.35;2.2;;;;;;;8.92;83.05273;94462.74;;;;
2019/05/03 01:03:12;;;;;;;2.7;2.1;;;;;;;8.84;82.25195;94453.72;;;;
2019/05/03 01:04:13;;;;;;;2.7;2.1;;;;;;;8.84;82.25195;94453.72;;;;
2019/05/03 01:05:15;;;;;;;2.7;2.1;;;;;;;8.84;82.25195;94453.72;;;;
2019/05/03 01:06:16;;;;;;;2.3;2.1;;;;;;;8.88;83.27051;94446.68;;;;
2019/05/03 01:07:17;;;;;;;2.3;2.1;;;;;;;8.88;83.27051;94446.68;;;;
2019/05/03 01:08:18;;;;;;;2.3;2.1;;;;;;;8.88;83.27051;94446.68;;;;
2019/05/03 01:09:22;;;;;;;2.3;2.1;;;;;;;8.88;83.27051;94446.68;;;;
2019/05/03 01:10:23;;;;;;;2.3;2.1;;;;;;;8.88;83.27051;94446.68;;;;
2019/05/03 01:11:24;;;;;;;2.3;2.1;;;;;;;8.88;83.27051;94446.68;;;;
2019/05/03 01:12:25;;;;;;;2.3;2.1;;;;;;;8.88;83.27051;94446.68;;;;
2019/05/03 01:13:26;;;;;;;2.3;2.1;;;;;;;8.88;83.27051;94446.68;;;;
2019/05/03 01:14:27;;;;;;;2.3;2.1;;;;;;;8.88;83.27051;94446.68;;;;
2019/05/03 01:15:36;;;;;;;2.3;2.1;;;;;;;8.88;83.27051;94446.68;;;;
2019/05/03 01:16:38;;;;;;;2.15;2;;;;;;;8.79;82.44629;94442.77;;;;
2019/05/03 01:17:39;;;;;;;2.15;2;;;;;;;8.79;82.44629;94442.77;;;;
2019/05/03 01:18:40;;;;;;;2.15;2;;;;;;;8.79;82.44629;94442.77;;;;
2019/05/03 01:19:42;;;;;;;2.3;2.1;;;;;;;8.83;83.39746;94439.06;;;;
2019/05/03 01:20:43;;;;;;;2.3;2.1;;;;;;;8.83;83.39746;94439.06;;;;
2019/05/03 01:21:44;;;;;;;2.3;2.1;;;;;;;8.83;83.39746;94439.06;;;;
2019/05/03 01:22:45;;;;;;;2.3;2.1;;;;;;;8.83;83.39746;94439.06;;;;
2019/05/03 01:23:46;;;;;;;2.3;2.1;;;;;;;8.83;83.39746;94439.06;;;;
2019/05/03 01:24:47;;;;;;;2.3;2.1;;;;;;;8.83;83.39746;94439.06;;;;
2019/05/03 01:25:48;;;;;;;2.3;2.1;;;;;;;8.83;83.39746;94439.06;;;;
2019/05/03 01:26:49;;;;;;;2.3;2.1;;;;;;;8.83;83.39746;94439.06;;;;
2019/05/03 01:27:51;;;;;;;2.3;2.1;;;;;;;8.83;83.39746;94439.06;;;;
2019/05/03 01:28:52;;;;;;;2.3;2.1;;;;;;;8.83;83.39746;94439.06;;;;
2019/05/03 01:29:53;;;;;;;2.3;2;;;;;;;8.76;82.79004;94443.38;;;;
2019/05/03 01:30:54;;;;;;;2.3;2;;;;;;;8.76;82.79004;94443.38;;;;
2019/05/03 01:31:56;;;;;;;2.3;2;;;;;;;8.76;82.79004;94443.38;;;;
2019/05/03 01:32:57;;;;;;;2.15;1.95;;;;;;;8.8;83.55176;94439;;;;
2019/05/03 01:33:58;;;;;;;2.15;1.95;;;;;;;8.8;83.55176;94439;;;;
2019/05/03 01:34:59;;;;;;;2.15;1.95;;;;;;;8.8;83.55176;94439;;;;
2019/05/03 01:36:00;;;;;;;2.15;1.95;;;;;;;8.8;83.55176;94439;;;;
2019/05/03 01:37:01;;;;;;;2.15;1.95;;;;;;;8.8;83.55176;94439;;;;
2019/05/03 01:38:02;;;;;;;2.15;1.95;;;;;;;8.8;83.55176;94439;;;;
2019/05/03 01:39:04;;;;;;;2.15;1.95;;;;;;;8.8;83.55176;94439;;;;
2019/05/03 01:40:05;;;;;;;2.15;1.95;;;;;;;8.8;83.55176;94439;;;;
2019/05/03 01:41:06;;;;;;;2.15;1.95;;;;;;;8.8;83.55176;94439;;;;
2019/05/03 01:42:07;;;;;;;2.15;1.95;;;;;;;8.8;83.55176;94439;;;;
2019/05/03 01:43:08;;;;;;;2.35;2.15;;;;;;;8.75;83.05176;94440.38;;;;
2019/05/03 01:44:09;;;;;;;2.35;2.15;;;;;;;8.75;83.05176;94440.38;;;;
2019/05/03 01:45:10;;;;;;;2.35;2.15;;;;;;;8.75;83.05176;94440.38;;;;
2019/05/03 01:46:11;;;;;;;2.35;2.15;;;;;;;8.75;83.05176;94440.38;;;;
2019/05/03 01:47:19;;;;;;;2.35;2.15;;;;;;;8.75;83.05176;94440.38;;;;
2019/05/03 01:48:35;;;;;;;2.35;2.15;;;;;;;8.75;83.05176;94440.38;;;;
2019/05/03 01:49:45;;;;;;;2.35;2.15;;;;;;;8.75;83.05176;94440.38;;;;
2019/05/03 01:50:57;;;;;;;2.35;2.15;;;;;;;8.75;83.05176;94440.38;;;;
2019/05/03 01:52:06;;;;;;;2.35;2.15;;;;;;;8.75;83.05176;94440.38;;;;
2019/05/03 01:53:07;;;;;;;2.35;2.15;;;;;;;8.75;83.05176;94440.38;;;;
2019/05/03 01:54:09;;;;;;;2.35;2.15;;;;;;;8.75;83.05176;94440.38;;;;
2019/05/03 01:55:10;;;;;;;2.35;2.15;;;;;;;8.75;83.05176;94440.38;;;;
2019/05/03 01:56:11;;;;;;;2.8;2.35;;;;;;;8.73;83.60254;94438.87;;;;
2019/05/03 01:57:12;;;;;;;2.8;2.35;;;;;;;8.73;83.60254;94438.87;;;;
2019/05/03 01:58:13;;;;;;;2.8;2.35;;;;;;;8.73;83.60254;94438.87;;;;
2019/05/03 01:59:14;;;;;;;3;2.6;;;;;;;8.78;84.7168;94426.84;;;;
2019/05/03 02:00:22;;;;;;;3;2.6;;;;;;;8.78;84.7168;94426.84;;;;
2019/05/03 02:01:31;;;;;;;3;2.6;;;;;;;8.78;84.7168;94426.84;;;;
2019/05/03 02:02:47;;;;;;;3;2.6;;;;;;;8.78;84.7168;94426.84;;;;
2019/05/03 02:03:54;;;;;;;3;2.6;;;;;;;8.78;84.7168;94426.84;;;;
2019/05/03 02:09:06;;;;;;;3;2.7;;;;;;;8.75;83.91309;94439.03;;;;
2019/05/03 02:10:07;;;;;;;3;2.7;;;;;;;8.75;83.91309;94439.03;;;;
2019/05/03 02:11:09;;;;;;;3;2.7;;;;;;;8.75;83.91309;94439.03;;;;
2019/05/03 02:12:10;;;;;;;2.9;2.6;;;;;;;8.8;84.84766;94431.45;;;;
2019/05/03 02:13:11;;;;;;;2.9;2.6;;;;;;;8.8;84.84766;94431.45;;;;
2019/05/03 02:14:12;;;;;;;2.9;2.6;;;;;;;8.8;84.84766;94431.45;;;;
2019/05/03 02:15:13;;;;;;;2.9;2.6;;;;;;;8.8;84.84766;94431.45;;;;
2019/05/03 02:16:14;;;;;;;2.9;2.6;;;;;;;8.8;84.84766;94431.45;;;;
2019/05/03 02:17:15;;;;;;;2.9;2.6;;;;;;;8.8;84.84766;94431.45;;;;
2019/05/03 02:18:17;;;;;;;2.9;2.6;;;;;;;8.8;84.84766;94431.45;;;;
2019/05/03 02:19:18;;;;;;;2.9;2.6;;;;;;;8.8;84.84766;94431.45;;;;
2019/05/03 02:20:19;;;;;;;2.9;2.6;;;;;;;8.8;84.84766;94431.45;;;;
2019/05/03 02:21:20;;;;;;;2.9;2.6;;;;;;;8.8;84.84766;94431.45;;;;
2019/05/03 02:22:21;;;;;;;3.15;2.85;;;;;;;8.77;84.06738;94425.63;;;;
2019/05/03 02:23:22;;;;;;;3.15;2.85;;;;;;;8.77;84.06738;94425.63;;;;
2019/05/03 02:24:23;;;;;;;3.15;2.85;;;;;;;8.77;84.06738;94425.63;;;;
2019/05/03 02:25:24;;;;;;;3.15;2.85;;;;;;;8.77;84.06738;94425.63;;;;
2019/05/03 02:26:25;;;;;;;3.15;2.85;;;;;;;8.77;84.06738;94425.63;;;;
2019/05/03 02:27:27;;;;;;;3.15;2.85;;;;;;;8.77;84.06738;94425.63;;;;
2019/05/03 02:28:28;;;;;;;3.15;2.85;;;;;;;8.77;84.06738;94425.63;;;;
2019/05/03 02:29:29;;;;;;;3.15;2.85;;;;;;;8.77;84.06738;94425.63;;;;
2019/05/03 02:30:30;;;;;;;3.15;2.85;;;;;;;8.77;84.06738;94425.63;;;;
2019/05/03 02:31:31;;;;;;;3.15;2.85;;;;;;;8.77;84.06738;94425.63;;;;
2019/05/03 02:32:32;;;;;;;3.15;2.85;;;;;;;8.77;84.06738;94425.63;;;;
2019/05/03 02:33:33;;;;;;;3.1;2.85;;;;;;;8.77;84.14355;94428.74;;;;
2019/05/03 02:34:34;;;;;;;3.1;2.85;;;;;;;8.77;84.14355;94428.74;;;;
2019/05/03 02:35:35;;;;;;;3.1;2.85;;;;;;;8.77;84.14355;94428.74;;;;
2019/05/03 02:36:37;;;;;;;3.1;2.85;;;;;;;8.77;84.14355;94428.74;;;;
2019/05/03 02:37:39;;;;;;;3.1;2.85;;;;;;;8.77;84.14355;94428.74;;;;
2019/05/03 02:38:41;;;;;;;3.1;2.85;;;;;;;8.77;84.14355;94428.74;;;;
2019/05/03 02:39:42;;;;;;;3.1;2.85;;;;;;;8.77;84.14355;94428.74;;;;
2019/05/03 02:40:43;;;;;;;3.1;2.85;;;;;;;8.77;84.14355;94428.74;;;;
2019/05/03 02:41:44;;;;;;;3.1;2.85;;;;;;;8.77;84.14355;94428.74;;;;
2019/05/03 02:43:04;;;;;;;3.1;2.85;;;;;;;8.77;84.14355;94428.74;;;;
2019/05/03 02:44:05;;;;;;;2.6;2.4;;;;;;;8.73;83.73047;94434.31;;;;
2019/05/03 02:45:09;;;;;;;2.6;2.4;;;;;;;8.73;83.73047;94434.31;;;;
2019/05/03 02:46:24;;;;;;;2.6;2.4;;;;;;;8.73;83.73047;94434.31;;;;
2019/05/03 02:48:03;;;;;;;2.6;2.4;;;;;;;8.73;83.73047;94434.31;;;;
2019/05/03 02:49:26;;;;;;;2.6;2.4;;;;;;;8.73;83.73047;94434.31;;;;
2019/05/03 02:50:27;;;;;;;2.6;2.4;;;;;;;8.73;83.73047;94434.31;;;;
2019/05/03 02:51:28;;;;;;;2.6;2.4;;;;;;;8.73;83.73047;94434.31;;;;
2019/05/03 02:52:32;;;;;;;2.6;2.4;;;;;;;8.73;83.73047;94434.31;;;;
2019/05/03 02:53:33;;;;;;;2.6;2.4;;;;;;;8.73;83.73047;94434.31;;;;
2019/05/03 02:54:34;;;;;;;2.5;2.3;;;;;;;8.76;83.66113;94425.74;;;;
2019/05/03 02:55:35;;;;;;;2.5;2.3;;;;;;;8.76;83.66113;94425.74;;;;
2019/05/03 02:56:36;;;;;;;2.5;2.3;;;;;;;8.76;83.66113;94425.74;;;;
2019/05/03 02:57:37;;;;;;;2.5;2.3;;;;;;;8.76;83.66113;94425.74;;;;
2019/05/03 02:58:39;;;;;;;2.5;2.3;;;;;;;8.76;83.66113;94425.74;;;;
2019/05/03 02:59:40;;;;;;;2.5;2.3;;;;;;;8.76;83.66113;94425.74;;;;
2019/05/03 03:00:41;;;;;;;2.5;2.3;;;;;;;8.76;83.66113;94425.74;;;;
2019/05/03 03:01:53;;;;;;;2.5;2.3;;;;;;;8.76;83.66113;94425.74;;;;
2019/05/03 03:02:54;;;;;;;2.5;2.3;;;;;;;8.76;83.66113;94425.74;;;;
2019/05/03 03:03:55;;;;;;;2.5;2.3;;;;;;;8.76;83.66113;94425.74;;;;
2019/05/03 03:04:57;;;;;;;2.6;2.35;;;;;;;8.7;83.58691;94429.02;;;;
2019/05/03 03:05:58;;;;;;;2.6;2.35;;;;;;;8.7;83.58691;94429.02;;;;
2019/05/03 03:07:00;;;;;;;2.6;2.35;;;;;;;8.7;83.58691;94429.02;;;;
2019/05/03 03:08:01;;;;;;;2.5;2.3;;;;;;;8.75;84.55078;94429.61;;;;
2019/05/03 03:09:03;;;;;;;2.5;2.3;;;;;;;8.75;84.55078;94429.61;;;;
2019/05/03 03:10:05;;;;;;;2.5;2.3;;;;;;;8.75;84.55078;94429.61;;;;
2019/05/03 03:11:06;;;;;;;2.5;2.3;;;;;;;8.75;84.55078;94429.61;;;;
2019/05/03 03:12:07;;;;;;;2.5;2.3;;;;;;;8.75;84.55078;94429.61;;;;
2019/05/03 03:13:08;;;;;;;2.5;2.3;;;;;;;8.75;84.55078;94429.61;;;;
2019/05/03 03:14:09;;;;;;;2.5;2.3;;;;;;;8.75;84.55078;94429.61;;;;
2019/05/03 03:15:11;;;;;;;2.5;2.3;;;;;;;8.75;84.55078;94429.61;;;;
2019/05/03 03:16:12;;;;;;;2.5;2.3;;;;;;;8.75;84.55078;94429.61;;;;
2019/05/03 03:17:13;;;;;;;2.5;2.3;;;;;;;8.75;84.55078;94429.61;;;;
2019/05/03 03:18:15;;;;;;;3.05;2.2;;;;;;;8.72;84.0459;94424.73;;;;
2019/05/03 03:19:16;;;;;;;3.05;2.2;;;;;;;8.72;84.0459;94424.73;;;;
2019/05/03 03:20:17;;;;;;;3.05;2.2;;;;;;;8.72;84.0459;94424.73;;;;
2019/05/03 03:21:19;;;;;;;3.05;2.2;;;;;;;8.72;84.0459;94424.73;;;;
2019/05/03 03:22:20;;;;;;;3.05;2.2;;;;;;;8.72;84.0459;94424.73;;;;
2019/05/03 03:23:21;;;;;;;3.05;2.2;;;;;;;8.72;84.0459;94424.73;;;;
2019/05/03 03:24:24;;;;;;;3.05;2.2;;;;;;;8.72;84.0459;94424.73;;;;
2019/05/03 03:25:27;;;;;;;3.05;2.2;;;;;;;8.72;84.0459;94424.73;;;;
2019/05/03 03:26:29;;;;;;;3.05;2.2;;;;;;;8.72;84.0459;94424.73;;;;
2019/05/03 03:27:30;;;;;;;3.05;2.2;;;;;;;8.72;84.0459;94424.73;;;;
2019/05/03 03:28:31;;;;;;;3.05;2.2;;;;;;;8.72;84.0459;94424.73;;;;
2019/05/03 03:29:32;;;;;;;2.5;2.299999;;;;;;;8.67;83.86621;94423.32;;;;
2019/05/03 03:30:36;;;;;;;2.5;2.299999;;;;;;;8.67;83.86621;94423.32;;;;
2019/05/03 03:35:50;;;;;;;2.5;2.299999;;;;;;;8.67;83.86621;94423.32;;;;
2019/05/03 03:36:52;;;;;;;2.5;2.299999;;;;;;;8.67;83.86621;94423.32;;;;
2019/05/03 03:37:53;;;;;;;2.5;2.299999;;;;;;;8.67;83.86621;94423.32;;;;
2019/05/03 03:38:54;;;;;;;2.5;2.299999;;;;;;;8.67;83.86621;94423.32;;;;
2019/05/03 03:39:55;;;;;;;2.75;2.55;;;;;;;8.61;83.80078;94429.66;;;;
2019/05/03 03:40:56;;;;;;;2.75;2.55;;;;;;;8.61;83.80078;94429.66;;;;
2019/05/03 03:41:57;;;;;;;2.75;2.55;;;;;;;8.61;83.80078;94429.66;;;;
2019/05/03 03:42:58;;;;;;;2.75;2.55;;;;;;;8.61;83.80078;94429.66;;;;
2019/05/03 03:43:59;;;;;;;2.75;2.55;;;;;;;8.61;83.80078;94429.66;;;;
2019/05/03 03:45:01;;;;;;;2.75;2.55;;;;;;;8.61;83.80078;94429.66;;;;
2019/05/03 03:46:02;;;;;;;2.75;2.55;;;;;;;8.61;83.80078;94429.66;;;;
2019/05/03 03:47:03;;;;;;;2.75;2.55;;;;;;;8.61;83.80078;94429.66;;;;
2019/05/03 03:48:04;;;;;;;2.75;2.55;;;;;;;8.61;83.80078;94429.66;;;;
2019/05/03 03:49:05;;;;;;;2.75;2.55;;;;;;;8.61;83.80078;94429.66;;;;
2019/05/03 03:50:06;;;;;;;2.75;2.55;;;;;;;8.61;83.80078;94429.66;;;;
2019/05/03 03:51:07;;;;;;;2.75;2.55;;;;;;;8.61;83.80078;94429.66;;;;
2019/05/03 03:52:09;;;;;;;2.75;2.55;;;;;;;8.61;83.80078;94429.66;;;;
2019/05/03 03:53:10;;;;;;;2.75;2.55;;;;;;;8.61;83.80078;94429.66;;;;
2019/05/03 03:54:11;;;;;;;2.75;2.55;;;;;;;8.61;83.80078;94429.66;;;;
2019/05/03 03:55:16;;;;;;;2.75;2.55;;;;;;;8.61;83.80078;94429.66;;;;
2019/05/03 03:56:17;;;;;;;2.75;2.55;;;;;;;8.61;83.80078;94429.66;;;;
2019/05/03 03:57:18;;;;;;;2.75;2.55;;;;;;;8.61;83.80078;94429.66;;;;
2019/05/03 03:58:19;;;;;;;2.75;2.55;;;;;;;8.61;83.80078;94429.66;;;;
2019/05/03 03:59:20;;;;;;;2.75;2.55;;;;;;;8.61;83.80078;94429.66;;;;
2019/05/03 04:00:22;;;;;;;3.8;3.4;;;;;;;8.68;83.67871;94449.98;;;;
2019/05/03 04:01:23;;;;;;;3.8;3.4;;;;;;;8.68;83.67871;94449.98;;;;
2019/05/03 04:02:24;;;;;;;3.8;3.4;;;;;;;8.68;83.67871;94449.98;;;;
2019/05/03 04:03:25;;;;;;;3.8;3.4;;;;;;;8.68;83.67871;94449.98;;;;
2019/05/03 04:04:26;;;;;;;3.8;3.4;;;;;;;8.68;83.67871;94449.98;;;;
2019/05/03 04:05:27;;;;;;;3.8;3.4;;;;;;;8.68;83.67871;94449.98;;;;
2019/05/03 04:06:43;;;;;;;3.8;3.4;;;;;;;8.68;83.67871;94449.98;;;;
2019/05/03 04:07:44;;;;;;;3.8;3.4;;;;;;;8.68;83.67871;94449.98;;;;
2019/05/03 04:08:45;;;;;;;3.8;3.4;;;;;;;8.68;83.67871;94449.98;;;;
2019/05/03 04:09:46;;;;;;;3.8;3.4;;;;;;;8.68;83.67871;94449.98;;;;
2019/05/03 04:10:47;;;;;;;3.8;3.4;;;;;;;8.68;83.67871;94449.98;;;;
2019/05/03 04:11:49;;;;;;;4.05;3.65;;;;;;;8.74;83.6875;94456.26;;;;
2019/05/03 04:12:50;;;;;;;4.05;3.65;;;;;;;8.74;83.6875;94456.26;;;;
2019/05/03 04:13:51;;;;;;;4.05;3.65;;;;;;;8.74;83.6875;94456.26;;;;
2019/05/03 04:14:58;;;;;;;4.05;3.65;;;;;;;8.74;83.6875;94456.26;;;;
2019/05/03 04:16:09;;;;;;;4.05;3.65;;;;;;;8.74;83.6875;94456.26;;;;
2019/05/03 04:22:21;;;;;;;5.3;3.95;;;;;;;8.71;83.71582;94471.42;;;;
2019/05/03 04:23:22;;;;;;;5.3;3.95;;;;;;;8.71;83.71582;94471.42;;;;
2019/05/03 04:24:23;;;;;;;5.3;3.95;;;;;;;8.71;83.71582;94471.42;;;;
2019/05/03 04:25:24;;;;;;;5.3;3.95;;;;;;;8.71;83.71582;94471.42;;;;
2019/05/03 04:26:25;;;;;;;5.3;3.95;;;;;;;8.71;83.71582;94471.42;;;;
2019/05/03 04:27:27;;;;;;;5.3;3.95;;;;;;;8.71;83.71582;94471.42;;;;
2019/05/03 04:28:28;;;;;;;5.3;3.95;;;;;;;8.71;83.71582;94471.42;;;;
2019/05/03 04:29:29;;;;;;;5.3;3.95;;;;;;;8.71;83.71582;94471.42;;;;
2019/05/03 04:30:32;;;;;;;5.3;3.95;;;;;;;8.71;83.71582;94471.42;;;;
2019/05/03 04:31:33;;;;;;;5.3;3.95;;;;;;;8.71;83.71582;94471.42;;;;
2019/05/03 04:32:34;;;;;;;6.45;5.249999;;;;;;;8.76;83.99121;94478.22;;;;
2019/05/03 04:33:36;;;;;;;6.45;5.249999;;;;;;;8.76;83.99121;94478.22;;;;
2019/05/03 04:34:37;;;;;;;6.45;5.249999;;;;;;;8.76;83.99121;94478.22;;;;
2019/05/03 04:35:38;;;;;;;6.45;5.249999;;;;;;;8.76;83.99121;94478.22;;;;
2019/05/03 04:36:39;;;;;;;6.45;5.249999;;;;;;;8.76;83.99121;94478.22;;;;
2019/05/03 04:37:40;;;;;;;6.45;5.249999;;;;;;;8.76;83.99121;94478.22;;;;
2019/05/03 04:38:41;;;;;;;6.45;5.249999;;;;;;;8.76;83.99121;94478.22;;;;
2019/05/03 04:39:42;;;;;;;6.45;5.249999;;;;;;;8.76;83.99121;94478.22;;;;
2019/05/03 04:40:43;;;;;;;6.45;5.249999;;;;;;;8.76;83.99121;94478.22;;;;
2019/05/03 04:41:44;;;;;;;6.45;5.249999;;;;;;;8.76;83.99121;94478.22;;;;
2019/05/03 04:42:45;;;;;;;7.299999;5.700001;;;;;;;8.81;83.94531;94483.83;;;;
2019/05/03 04:43:46;;;;;;;7.299999;5.700001;;;;;;;8.81;83.94531;94483.83;;;;
2019/05/03 04:44:47;;;;;;;7.299999;5.700001;;;;;;;8.81;83.94531;94483.83;;;;
2019/05/03 04:46:06;;;;;;;7.299999;5.700001;;;;;;;8.81;83.94531;94483.83;;;;
2019/05/03 04:47:08;;;;;;;7.299999;5.700001;;;;;;;8.81;83.94531;94483.83;;;;
2019/05/03 04:48:09;;;;;;;7.299999;5.700001;;;;;;;8.81;83.94531;94483.83;;;;
2019/05/03 04:49:10;;;;;;;7.299999;5.700001;;;;;;;8.81;83.94531;94483.83;;;;
2019/05/03 04:50:11;;;;;;;7.299999;5.700001;;;;;;;8.81;83.94531;94483.83;;;;
2019/05/03 04:51:12;;;;;;;7.299999;5.700001;;;;;;;8.81;83.94531;94483.83;;;;
2019/05/03 04:52:13;;;;;;;7.299999;5.700001;;;;;;;8.81;83.94531;94483.83;;;;
2019/05/03 04:53:14;;;;;;;7.299999;5.700001;;;;;;;8.81;83.94531;94483.83;;;;
2019/05/03 04:54:22;;;;;;;7.95;6.100001;;;;;;;8.98;83.95801;94483.69;;;;
2019/05/03 04:55:23;;;;;;;7.95;6.100001;;;;;;;8.98;83.95801;94483.69;;;;
2019/05/03 04:56:24;;;;;;;7.95;6.100001;;;;;;;8.98;83.95801;94483.69;;;;
2019/05/03 04:57:25;;;;;;;7.95;6.100001;;;;;;;8.98;83.95801;94483.69;;;;
2019/05/03 04:58:26;;;;;;;7.95;6.100001;;;;;;;8.98;83.95801;94483.69;;;;
2019/05/03 04:59:28;;;;;;;7.95;6.100001;;;;;;;8.98;83.95801;94483.69;;;;
2019/05/03 05:00:29;;;;;;;7.95;6.100001;;;;;;;8.98;83.95801;94483.69;;;;
2019/05/03 05:01:30;;;;;;;7.95;6.100001;;;;;;;8.98;83.95801;94483.69;;;;
2019/05/03 05:02:31;;;;;;;7.95;6.100001;;;;;;;8.98;83.95801;94483.69;;;;
2019/05/03 05:03:32;;;;;;;7.95;6.100001;;;;;;;8.98;83.95801;94483.69;;;;
2019/05/03 05:04:33;;;;;;;8.399999;6.05;;;;;;;9.11;83.78125;94498.58;;;;
2019/05/03 05:05:34;;;;;;;8.399999;6.05;;;;;;;9.11;83.78125;94498.58;;;;
2019/05/03 05:06:35;;;;;;;8.399999;6.05;;;;;;;9.11;83.78125;94498.58;;;;
2019/05/03 05:07:36;;;;;;;8.399999;6.05;;;;;;;9.11;83.78125;94498.58;;;;
2019/05/03 05:08:37;;;;;;;8.399999;6.05;;;;;;;9.11;83.78125;94498.58;;;;
2019/05/03 05:09:38;;;;;;;8.399999;6.05;;;;;;;9.11;83.78125;94498.58;;;;
2019/05/03 05:10:39;;;;;;;8.399999;6.05;;;;;;;9.11;83.78125;94498.58;;;;
2019/05/03 05:11:40;;;;;;;8.399999;6.05;;;;;;;9.11;83.78125;94498.58;;;;
2019/05/03 05:12:41;;;;;;;8.399999;6.05;;;;;;;9.11;83.78125;94498.58;;;;
2019/05/03 05:13:42;;;;;;;8.399999;6.05;;;;;;;9.11;83.78125;94498.58;;;;
2019/05/03 05:14:44;;;;;;;7.849999;6.599999;;;;;;;9.32;83.85547;94504.14;;;;
2019/05/03 05:15:45;;;;;;;7.849999;6.599999;;;;;;;9.32;83.85547;94504.14;;;;
2019/05/03 05:16:46;;;;;;;7.849999;6.599999;;;;;;;9.32;83.85547;94504.14;;;;
2019/05/03 05:18:07;;;;;;;7.849999;6.599999;;;;;;;9.32;83.85547;94504.14;;;;
2019/05/03 05:19:11;;;;;;;7.849999;6.599999;;;;;;;9.32;83.85547;94504.14;;;;
2019/05/03 05:20:18;;;;;;;7.849999;6.599999;;;;;;;9.32;83.85547;94504.14;;;;
2019/05/03 05:21:23;;;;;;;7.849999;6.599999;;;;;;;9.32;83.85547;94504.14;;;;
2019/05/03 05:22:26;;;;;;;7.849999;6.599999;;;;;;;9.32;83.85547;94504.14;;;;
2019/05/03 05:23:27;;;;;;;7.849999;6.599999;;;;;;;9.32;83.85547;94504.14;;;;
2019/05/03 05:24:28;;;;;;;7.849999;6.599999;;;;;;;9.32;83.85547;94504.14;;;;
2019/05/03 05:25:34;;;;;;;8.200001;6.500001;;;;;;;9.42;83.58594;94513.33;;;;
2019/05/03 05:26:45;;;;;;;8.200001;6.500001;;;;;;;9.42;83.58594;94513.33;;;;
2019/05/03 05:28:11;;;;;;;8.200001;6.500001;;;;;;;9.42;83.58594;94513.33;;;;
2019/05/03 05:29:14;;;;;;;8.200001;6.500001;;;;;;;9.42;83.58594;94513.33;;;;
2019/05/03 05:30:15;;;;;;;8.200001;6.500001;;;;;;;9.42;83.58594;94513.33;;;;
2019/05/03 05:31:16;;;;;;;8.200001;6.500001;;;;;;;9.42;83.58594;94513.33;;;;
2019/05/03 05:32:17;;;;;;;8.200001;6.500001;;;;;;;9.42;83.58594;94513.33;;;;
2019/05/03 05:33:19;;;;;;;8.200001;6.500001;;;;;;;9.42;83.58594;94513.33;;;;
2019/05/03 05:34:20;;;;;;;8.200001;6.500001;;;;;;;9.42;83.58594;94513.33;;;;
2019/05/03 05:35:21;;;;;;;8.200001;6.500001;;;;;;;9.42;83.58594;94513.33;;;;
2019/05/03 05:36:22;;;;;;;14.15;8.149999;;;;;;;9.66;83.43945;94517.05;;;;
2019/05/03 05:37:24;;;;;;;14.15;8.149999;;;;;;;9.66;83.43945;94517.05;;;;
2019/05/03 05:38:25;;;;;;;14.15;8.149999;;;;;;;9.66;83.43945;94517.05;;;;
2019/05/03 05:39:26;;;;;;;14.15;8.149999;;;;;;;9.66;83.43945;94517.05;;;;
2019/05/03 05:40:27;;;;;;;14.15;8.149999;;;;;;;9.66;83.43945;94517.05;;;;
2019/05/03 05:41:28;;;;;;;14.15;8.149999;;;;;;;9.66;83.43945;94517.05;;;;
2019/05/03 05:42:29;;;;;;;14.15;8.149999;;;;;;;9.66;83.43945;94517.05;;;;
2019/05/03 05:43:30;;;;;;;14.15;8.149999;;;;;;;9.66;83.43945;94517.05;;;;
2019/05/03 05:44:31;;;;;;;14.15;8.149999;;;;;;;9.66;83.43945;94517.05;;;;
2019/05/03 05:45:32;;;;;;;14.15;8.149999;;;;;;;9.66;83.43945;94517.05;;;;
2019/05/03 05:46:43;;;;;;;14.15;8.149999;;;;;;;9.66;83.43945;94517.05;;;;
2019/05/03 05:47:50;;;;;;;14.15;8.149999;;;;;;;9.66;83.43945;94517.05;;;;
2019/05/03 05:48:52;;;;;;;14.15;8.149999;;;;;;;9.66;83.43945;94517.05;;;;
2019/05/03 05:49:58;;;;;;;14.15;8.149999;;;;;;;9.66;83.43945;94517.05;;;;
2019/05/03 05:51:00;;;;;;;14.15;8.149999;;;;;;;9.66;83.43945;94517.05;;;;
2019/05/03 05:52:01;;;;;;;14.15;8.149999;;;;;;;9.66;83.43945;94517.05;;;;
2019/05/03 05:53:02;;;;;;;14.15;8.149999;;;;;;;9.66;83.43945;94517.05;;;;
2019/05/03 05:54:03;;;;;;;14.15;8.149999;;;;;;;9.66;83.43945;94517.05;;;;
2019/05/03 05:55:14;;;;;;;14.15;8.149999;;;;;;;9.66;83.43945;94517.05;;;;
2019/05/03 05:56:59;;;;;;;14.15;8.149999;;;;;;;9.66;83.43945;94517.05;;;;
2019/05/03 05:58:06;;;;;;;15.8;10.55;;;;;;;9.9;83.11328;94530.03;;;;
2019/05/03 05:59:11;;;;;;;15.8;10.55;;;;;;;9.9;83.11328;94530.03;;;;
2019/05/03 06:00:19;;;;;;;15.8;10.55;;;;;;;9.9;83.11328;94530.03;;;;
2019/05/03 06:01:26;;;;;;;15.8;10.55;;;;;;;9.9;83.11328;94530.03;;;;
2019/05/03 06:02:28;;;;;;;15.8;10.55;;;;;;;9.9;83.11328;94530.03;;;;
2019/05/03 06:03:29;;;;;;;15.8;10.55;;;;;;;9.9;83.11328;94530.03;;;;
2019/05/03 06:04:30;;;;;;;15.8;10.55;;;;;;;9.9;83.11328;94530.03;;;;
2019/05/03 06:05:31;;;;;;;15.8;10.55;;;;;;;9.9;83.11328;94530.03;;;;
2019/05/03 06:06:43;;;;;;;15.8;10.55;;;;;;;9.9;83.11328;94530.03;;;;
2019/05/03 06:07:52;;;;;;;15.8;10.55;;;;;;;9.9;83.11328;94530.03;;;;
2019/05/03 06:09:01;;;;;;;19.9;11.3;;;;;;;10.11;83.45117;94535.58;;;;
2019/05/03 06:12:10;;;;;;;19.9;11.3;;;;;;;10.11;83.45117;94535.58;;;;
2019/05/03 06:13:17;;;;;;;19.9;11.3;;;;;;;10.11;83.45117;94535.58;;;;
2019/05/03 06:14:23;;;;;;;19.9;11.3;;;;;;;10.11;83.45117;94535.58;;;;
2019/05/03 06:15:38;;;;;;;19.9;11.3;;;;;;;10.11;83.45117;94535.58;;;;
2019/05/03 06:17:04;;;;;;;19.9;11.3;;;;;;;10.11;83.45117;94535.58;;;;
2019/05/03 06:18:10;;;;;;;19.9;11.3;;;;;;;10.11;83.45117;94535.58;;;;
2019/05/03 06:19:32;;;;;;;18.3;12.1;;;;;;;10.45;83.04883;94547.86;;;;
2019/05/03 06:20:39;;;;;;;18.3;12.1;;;;;;;10.45;83.04883;94547.86;;;;
2019/05/03 06:26:59;;;;;;;18.3;12.1;;;;;;;10.45;83.04883;94547.86;;;;
2019/05/03 06:28:03;;;;;;;18.3;12.1;;;;;;;10.45;83.04883;94547.86;;;;